Time;durP1;ratioP1;P1;durP2;ratioP2;P2;SDS_P1;SDS_P2;PMS_P1;PMS_P2;Temp;Humidity;BMP_temperature;BMP_pressure;BME280_temperature;BME280_humidity;BME280_pressure;Samples;Min_cycle;Max_cycle;Signal;HPM_P1;HPM_P2
2022/03/18 00:02:17;;;;;;;15.63;7.63;;;;;;;2.43;75.73;103714.53;6563383;22;20033;-77
2022/03/18 00:04:49;;;;;;;13.40;7.57;;;;;;;2.41;75.50;103703.22;6563880;22;19999;-74
2022/03/18 00:07:21;;;;;;;15.93;8.70;;;;;;;2.32;76.08;103715.50;6563635;22;20715;-74
2022/03/18 00:09:54;;;;;;;16.25;8.40;;;;;;;2.24;76.26;103721.78;6562983;22;20007;-74
2022/03/18 00:12:25;;;;;;;23.25;9.98;;;;;;;2.19;75.99;103724.06;6563057;22;20004;-75
2022/03/18 00:21:25;;;;;;;16.60;8.00;;;;;;;1.89;77.42;103727.97;6544680;22;20032;-74
2022/03/18 00:28:53;;;;;;;16.33;8.23;;;;;;;1.65;77.52;103728.00;6433067;23;20475;-75
2022/03/18 00:39:30;;;;;;;;;;;;;;;;;;;;;
2022/03/18 01:00:46;;;;;;;21.70;10.35;;;;;;;1.16;79.47;103758.75;6115076;24;20110;-75
2022/03/18 01:03:19;;;;;;;24.95;9.82;;;;;;;1.18;79.29;103751.16;6162916;24;20400;-75
2022/03/18 01:05:50;;;;;;;27.55;10.30;;;;;;;1.12;79.61;103755.84;6163748;24;20391;-79
2022/03/18 01:08:22;;;;;;;18.00;9.37;;;;;;;1.09;79.73;103765.13;6165222;24;20020;-75
2022/03/18 01:10:53;;;;;;;13.37;8.40;;;;;;;0.98;79.73;103767.66;6185431;24;20016;-75
2022/03/18 01:13:25;;;;;;;20.20;10.10;;;;;;;0.88;79.93;103769.53;6222132;24;20079;-75
2022/03/18 01:15:56;;;;;;;18.30;8.80;;;;;;;0.75;80.47;103771.09;6244673;23;20048;-74
2022/03/18 01:18:29;;;;;;;16.17;8.73;;;;;;;0.83;80.96;103764.84;6251124;23;20338;-80
2022/03/18 01:21:01;;;;;;;16.80;8.52;;;;;;;0.77;80.95;103772.09;6262240;23;20018;-76
2022/03/18 01:23:32;;;;;;;16.10;7.77;;;;;;;0.73;80.99;103766.72;6362594;23;20016;-75
2022/03/18 01:26:03;;;;;;;14.27;7.30;;;;;;;0.64;81.26;103772.81;6400073;23;20068;-77
2022/03/18 01:28:35;;;;;;;14.57;8.33;;;;;;;0.68;81.58;103765.47;6401515;23;20028;-74
2022/03/18 01:31:06;;;;;;;14.93;8.73;;;;;;;0.66;81.47;103761.00;6401279;23;20359;-76
2022/03/18 01:33:37;;;;;;;14.57;7.80;;;;;;;0.61;81.45;103764.88;6401656;23;20010;-75
2022/03/18 01:36:11;;;;;;;14.10;7.73;;;;;;;0.56;81.84;103758.50;6452865;22;20034;-74
2022/03/18 01:38:42;;;;;;;15.18;7.95;;;;;;;0.48;81.76;103765.63;6562209;22;20014;-78
2022/03/18 01:41:13;;;;;;;13.27;7.70;;;;;;;0.47;82.61;103764.75;6562450;22;19999;-74
2022/03/18 01:43:47;;;;;;;18.30;7.77;;;;;;;0.40;82.19;103765.03;6562877;22;20038;-74
2022/03/18 01:46:18;;;;;;;16.58;8.90;;;;;;;0.38;82.72;103761.47;6562491;22;20439;-78
2022/03/18 01:48:50;;;;;;;15.57;8.10;;;;;;;0.33;82.85;103765.34;6562409;22;20007;-76
2022/03/18 01:51:22;;;;;;;16.50;7.47;;;;;;;0.34;83.42;103768.03;6561611;22;20014;-74
2022/03/18 01:54:44;;;;;;;16.63;7.63;;;;;;;0.31;83.28;103770.34;6561996;22;20696;-75
2022/03/18 01:56:45;;;;;;;18.35;7.90;;;;;;;0.23;83.52;103775.69;6561929;22;20455;-74
2022/03/18 01:59:17;;;;;;;12.50;6.63;;;;;;;0.15;83.19;103775.97;6562268;22;20015;-76
2022/03/18 02:01:49;;;;;;;12.17;7.67;;;;;;;0.20;83.69;103768.63;6562044;22;20049;-73
2022/03/18 02:04:21;;;;;;;15.82;8.85;;;;;;;0.15;83.85;103762.25;6562097;22;20037;-73
2022/03/18 02:06:53;;;;;;;13.83;7.53;;;;;;;0.10;83.62;103768.72;6561649;22;20041;-74
2022/03/18 02:09:25;;;;;;;16.15;8.45;;;;;;;0.13;83.44;103769.84;6561927;22;20425;-76
2022/03/18 02:11:56;;;;;;;15.43;6.63;;;;;;;0.15;84.10;103767.38;6561825;22;20011;-75
2022/03/18 02:14:37;;;;;;;18.23;7.83;;;;;;;0.12;84.18;103774.84;6562254;22;20029;-74
2022/03/18 02:17:11;;;;;;;14.85;7.15;;;;;;;0.14;84.26;103781.88;6562062;22;20076;-74
2022/03/18 02:19:44;;;;;;;15.52;7.55;;;;;;;0.11;84.21;103783.31;6562037;22;20014;-76
2022/03/18 02:22:24;;;;;;;17.17;8.05;;;;;;;0.09;84.33;103788.31;6561923;22;20068;-79
2022/03/18 02:24:55;;;;;;;16.52;8.07;;;;;;;0.09;84.25;103785.75;6561928;22;20015;-75
2022/03/18 02:27:27;;;;;;;15.18;8.50;;;;;;;0.13;83.82;103786.88;6561963;22;20133;-79
2022/03/18 02:29:59;;;;;;;16.13;8.03;;;;;;;0.08;83.83;103794.22;6561761;22;20082;-79
2022/03/18 02:32:31;;;;;;;13.20;7.35;;;;;;;-0.01;83.88;103788.38;6562217;22;20029;-73
2022/03/18 02:35:03;;;;;;;13.90;7.35;;;;;;;-0.08;84.10;103789.56;6561826;22;20420;-76
2022/03/18 02:37:34;;;;;;;18.00;8.40;;;;;;;-0.17;84.21;103787.94;6561569;22;20008;-75
2022/03/18 02:40:06;;;;;;;15.30;8.17;;;;;;;-0.26;84.52;103791.56;6562094;22;20108;-74
2022/03/18 02:42:38;;;;;;;17.83;8.43;;;;;;;-0.29;84.93;103805.78;6534221;22;20032;-73
2022/03/18 02:45:10;;;;;;;15.10;7.77;;;;;;;-0.25;85.31;103806.16;6561490;22;20476;-74
2022/03/18 02:47:42;;;;;;;16.73;8.23;;;;;;;-0.26;85.32;103804.38;6561961;22;20003;-75
2022/03/18 02:50:15;;;;;;;16.98;7.82;;;;;;;-0.27;85.49;103804.25;6561901;22;20007;-78
2022/03/18 02:52:47;;;;;;;11.88;7.20;;;;;;;-0.28;85.88;103797.31;6534117;22;20000;-76
2022/03/18 02:55:19;;;;;;;18.55;7.10;;;;;;;-0.29;85.81;103800.66;6561461;22;20003;-76
2022/03/18 02:57:51;;;;;;;16.33;8.13;;;;;;;-0.33;85.73;103799.50;6562169;22;20034;-79
2022/03/18 03:00:25;;;;;;;17.57;8.77;;;;;;;-0.41;85.42;103803.13;6561131;22;20007;-74
2022/03/18 03:02:56;;;;;;;17.77;8.75;;;;;;;-0.45;85.72;103811.34;6561904;22;20007;-75
2022/03/18 03:08:18;;;;;;;15.80;7.75;;;;;;;-0.52;86.05;103816.75;6561470;22;20090;-77
2022/03/18 03:10:49;;;;;;;23.67;8.13;;;;;;;-0.56;86.40;103823.28;6561407;22;20090;-75
2022/03/18 03:13:22;;;;;;;21.93;8.30;;;;;;;-0.54;86.81;103818.28;6534402;22;20011;-74
2022/03/18 03:15:54;;;;;;;15.73;8.43;;;;;;;-0.57;86.64;103821.50;6562260;22;19999;-75
2022/03/18 03:18:26;;;;;;;11.57;6.87;;;;;;;-0.58;86.53;103832.50;6561170;22;20010;-75
2022/03/18 03:20:58;;;;;;;16.85;8.10;;;;;;;-0.57;86.50;103829.19;6561414;22;20041;-76
2022/03/18 03:23:30;;;;;;;12.73;6.77;;;;;;;-0.59;86.60;103829.06;6561536;22;20000;-75
2022/03/18 03:26:02;;;;;;;11.00;7.53;;;;;;;-0.57;86.62;103829.19;6561076;22;20417;-73
2022/03/18 03:28:34;;;;;;;16.40;7.03;;;;;;;-0.65;86.33;103825.09;6561281;22;20067;-76
2022/03/18 03:31:05;;;;;;;19.13;8.10;;;;;;;-0.63;86.51;103836.34;6561094;22;20038;-79
2022/03/18 03:33:37;;;;;;;16.73;7.63;;;;;;;-0.66;86.79;103843.78;6561322;22;20007;-79
2022/03/18 03:36:09;;;;;;;15.43;7.57;;;;;;;-0.59;86.71;103838.41;6561291;22;20410;-73
2022/03/18 03:38:41;;;;;;;14.77;7.10;;;;;;;-0.62;86.57;103835.59;6561956;22;20261;-74
2022/03/18 03:41:12;;;;;;;11.48;6.43;;;;;;;-0.64;86.42;103834.59;6533461;22;20010;-74
2022/03/18 03:43:44;;;;;;;14.90;7.20;;;;;;;-0.75;86.79;103842.25;6561565;22;20102;-79
2022/03/18 03:46:16;;;;;;;13.05;7.90;;;;;;;-0.79;87.25;103845.34;6561208;22;19995;-75
2022/03/18 03:48:47;;;;;;;15.83;8.43;;;;;;;-0.84;87.54;103846.59;6561526;22;20013;-74
2022/03/18 03:51:18;;;;;;;17.77;7.67;;;;;;;-0.79;87.92;103858.16;6561176;22;20420;-75
2022/03/18 03:53:50;;;;;;;14.87;8.03;;;;;;;-0.80;87.95;103858.03;6561130;22;20076;-74
2022/03/18 03:56:21;;;;;;;13.63;6.70;;;;;;;-0.83;87.59;103858.66;6560600;22;20148;-76
2022/03/18 03:58:52;;;;;;;15.87;7.63;;;;;;;-0.81;87.42;103851.09;6561678;22;20003;-78
2022/03/18 04:01:24;;;;;;;19.87;8.37;;;;;;;-0.84;87.95;103850.84;6562311;22;20010;-79
2022/03/18 04:03:55;;;;;;;16.07;8.07;;;;;;;-0.85;88.37;103851.59;6561161;22;20062;-75
2022/03/18 04:06:26;;;;;;;12.47;7.30;;;;;;;-0.85;88.06;103864.41;6561489;22;20003;-74
2022/03/18 04:08:58;;;;;;;15.67;7.57;;;;;;;-0.92;88.22;103876.72;6560694;22;20008;-74
2022/03/18 04:11:29;;;;;;;18.43;9.13;;;;;;;-0.96;88.37;103871.22;6561036;22;20126;-75
2022/03/18 04:14:01;;;;;;;11.13;8.37;;;;;;;-0.94;88.83;103874.78;6561721;22;20021;-77
2022/03/18 04:16:32;;;;;;;16.40;7.53;;;;;;;-0.94;89.07;103873.13;6561392;22;20007;-76
2022/03/18 04:19:03;;;;;;;11.57;7.17;;;;;;;-0.97;89.05;103877.97;6563305;22;20003;-74
2022/03/18 04:21:35;;;;;;;13.50;7.17;;;;;;;-0.96;89.24;103889.13;6563891;22;20082;-74
2022/03/18 04:24:06;;;;;;;12.20;7.43;;;;;;;-0.99;89.25;103886.31;6563761;22;20011;-74
2022/03/18 04:26:37;;;;;;;23.33;8.47;;;;;;;-0.99;89.59;103894.00;6565064;22;20078;-76
2022/03/18 04:29:10;;;;;;;17.53;7.93;;;;;;;-1.04;89.40;103906.41;6565111;22;19999;-74
2022/03/18 04:31:42;;;;;;;22.73;9.32;;;;;;;-1.02;89.53;103903.97;6563806;22;20033;-77
2022/03/18 04:34:13;;;;;;;11.77;7.30;;;;;;;-1.05;89.79;103898.59;6563814;22;20003;-76
2022/03/18 04:36:45;;;;;;;14.57;7.63;;;;;;;-1.09;89.85;103897.44;6563722;22;20014;-76
2022/03/18 04:39:16;;;;;;;14.43;7.33;;;;;;;-1.11;90.06;103915.25;6564548;22;20006;-79
2022/03/18 04:41:48;;;;;;;17.10;8.33;;;;;;;-1.10;90.13;103911.00;6563640;22;20015;-75
2022/03/18 04:44:19;;;;;;;20.57;8.50;;;;;;;-1.13;90.14;103919.34;6564282;22;20425;-80
2022/03/18 04:46:50;;;;;;;15.47;8.90;;;;;;;-1.14;90.28;103909.84;6564851;22;19999;-77
2022/03/18 04:49:22;;;;;;;14.07;8.43;;;;;;;-1.10;90.29;103906.78;6564550;22;20010;-76
2022/03/18 04:51:53;;;;;;;16.73;7.60;;;;;;;-1.15;90.26;103904.59;6563711;22;20017;-77
2022/03/18 04:54:24;;;;;;;16.03;7.67;;;;;;;-1.19;89.97;103911.13;6563107;22;20129;-77
2022/03/18 04:59:47;;;;;;;16.40;7.57;;;;;;;-1.19;89.89;103923.94;6562865;22;20345;-79
2022/03/18 05:02:20;;;;;;;15.00;8.25;;;;;;;-1.24;89.46;103917.53;6562524;22;20007;-81
2022/03/18 05:04:53;;;;;;;;;;;;;;;-1.26;88.89;103931.81;6563641;22;20530;-77
2022/03/18 05:07:25;;;;;;;16.77;8.30;;;;;;;-1.26;89.22;103926.72;6562625;22;19910;-74
2022/03/18 05:09:56;;;;;;;14.17;7.93;;;;;;;-1.30;89.73;103927.22;6562628;22;20435;-79
2022/03/18 05:12:27;;;;;;;11.97;7.50;;;;;;;-1.30;89.83;103938.34;6562517;22;20046;-76
2022/03/18 05:14:59;;;;;;;13.63;7.63;;;;;;;-1.29;90.26;103944.34;6562804;22;20010;-76
2022/03/18 05:17:31;;;;;;;14.70;7.97;;;;;;;-1.33;90.55;103944.88;6562416;22;20007;-77
2022/03/18 05:20:04;;;;;;;14.50;7.53;;;;;;;-1.36;90.41;103948.06;6562830;22;20491;-80
2022/03/18 05:22:36;;;;;;;17.05;8.82;;;;;;;-1.35;90.20;103956.66;6562321;22;20007;-75
2022/03/18 05:25:07;;;;;;;16.07;7.60;;;;;;;-1.36;90.11;103949.72;6562204;22;20022;-74
2022/03/18 05:27:41;;;;;;;14.13;8.00;;;;;;;-1.37;90.26;103951.41;6562708;22;20068;-75
2022/03/18 05:30:15;;;;;;;17.38;7.63;;;;;;;-1.34;90.65;103954.19;6562209;22;20621;-77
2022/03/18 05:32:46;;;;;;;12.63;7.00;;;;;;;-1.38;90.58;103956.38;6562252;22;20072;-77
2022/03/18 05:35:18;;;;;;;12.37;7.13;;;;;;;-1.37;90.38;103955.59;6562587;22;20007;-78
2022/03/18 05:37:50;;;;;;;14.23;7.78;;;;;;;-1.37;90.53;103966.75;6562984;22;20431;-75
2022/03/18 05:40:22;;;;;;;16.73;6.93;;;;;;;-1.36;90.79;103963.41;6562432;22;20003;-73
2022/03/18 05:42:53;;;;;;;21.57;8.37;;;;;;;-1.33;90.99;103963.69;6562293;22;20082;-74
2022/03/18 05:45:24;;;;;;;12.77;8.80;;;;;;;-1.28;91.64;103971.75;6561676;22;20010;-75
2022/03/18 05:47:56;;;;;;;22.47;8.77;;;;;;;-1.27;91.99;103963.31;6562082;22;20009;-75
2022/03/18 05:50:27;;;;;;;20.87;8.67;;;;;;;-1.29;91.94;103965.75;6562061;22;20035;-75
2022/03/18 05:52:58;;;;;;;19.90;8.10;;;;;;;-1.26;92.16;103967.66;6562092;22;20010;-74
2022/03/18 05:56:52;;;;;;;22.90;9.93;;;;;;;-1.22;92.42;103966.25;6561464;22;20076;-74
2022/03/18 05:58:23;;;;;;;21.17;9.00;;;;;;;-1.21;92.67;103952.69;6561496;22;20443;-74
2022/03/18 06:00:55;;;;;;;19.80;8.73;;;;;;;-1.24;92.31;103961.03;6561677;22;20003;-76
2022/03/18 06:03:27;;;;;;;18.07;9.50;;;;;;;-1.20;92.53;103965.63;6562361;22;20003;-76
2022/03/18 06:06:02;;;;;;;23.23;8.40;;;;;;;-1.18;92.81;103979.47;6534845;22;19999;-75
2022/03/18 09:56:11;;;;;;;8.13;3.80;;;;;;;15.43;41.49;104191.59;6518235;22;20027;-77
2022/03/18 10:31:26;;;;;;;;;;;;;;;;;;;;;
2022/03/18 10:40:22;;;;;;;8.02;3.08;;;;;;;18.66;31.11;104210.44;6470211;22;20044;-72
2022/03/18 10:43:49;;;;;;;6.90;2.75;;;;;;;18.63;31.82;104206.88;6429682;23;20515;-75
2022/03/18 10:46:48;;;;;;;6.97;2.83;;;;;;;19.24;31.88;104209.97;6404204;23;20013;-73
2022/03/18 10:49:24;;;;;;;6.80;3.03;;;;;;;19.90;29.41;104206.72;6407115;23;20489;-76
2022/03/18 10:52:28;;;;;;;8.07;3.10;;;;;;;19.72;30.11;104210.16;6402799;23;20013;-75
2022/03/18 10:55:48;;;;;;;9.23;3.30;;;;;;;19.81;30.49;104193.47;6368765;23;20052;-74
2022/03/18 10:58:32;;;;;;;8.30;2.30;;;;;;;20.30;28.81;104203.25;6280001;23;20445;-73
2022/03/18 11:01:11;;;;;;;7.45;3.05;;;;;;;20.59;26.88;104200.59;6216106;24;20080;-74
2022/03/18 11:03:45;;;;;;;7.45;3.13;;;;;;;21.36;27.74;104207.53;6216407;24;20012;-72
2022/03/18 11:06:16;;;;;;;9.15;2.80;;;;;;;21.98;25.46;104203.69;6217865;23;20160;-74
2022/03/18 11:08:49;;;;;;;8.07;2.70;;;;;;;21.99;26.19;104199.25;6248380;23;20049;-74
2022/03/18 11:11:22;;;;;;;9.63;3.78;;;;;;;21.89;25.73;104198.44;6249871;23;20110;-76
2022/03/18 11:14:02;;;;;;;6.25;3.13;;;;;;;22.40;25.29;104195.44;6250305;23;20101;-73
2022/03/18 11:16:41;;;;;;;10.65;3.17;;;;;;;22.22;25.08;104184.03;6249371;23;20020;-72
2022/03/18 11:19:14;;;;;;;10.23;3.17;;;;;;;22.40;24.86;104185.69;6248605;23;20915;-71
2022/03/18 11:21:46;;;;;;;7.90;3.25;;;;;;;21.80;25.58;104190.50;6249101;23;20596;-74
2022/03/18 11:24:25;;;;;;;8.55;2.97;;;;;;;22.64;25.32;104196.13;6246984;23;20043;-73
2022/03/18 11:27:00;;;;;;;5.60;2.97;;;;;;;22.97;24.29;104191.34;6248665;23;20114;-73
2022/03/18 11:29:34;;;;;;;7.60;2.80;;;;;;;23.06;23.64;104191.25;6247357;23;20022;-73
2022/03/18 11:32:15;;;;;;;7.13;3.30;;;;;;;22.88;24.89;104195.88;6294376;23;20093;-75
2022/03/18 11:34:52;;;;;;;9.82;3.60;;;;;;;22.61;24.41;104193.50;6370141;23;20009;-71
2022/03/18 11:37:28;;;;;;;8.65;3.60;;;;;;;23.88;23.56;104183.09;6407162;23;20339;-73
2022/03/18 11:40:19;;;;;;;7.68;3.58;;;;;;;23.88;24.80;104188.44;6406328;23;20108;-74
2022/03/18 11:42:50;;;;;;;8.13;3.75;;;;;;;24.20;22.99;104179.94;6405994;23;20076;-77
2022/03/18 11:45:42;;;;;;;9.00;3.08;;;;;;;24.63;24.25;104193.44;6408698;23;20029;-74
2022/03/18 11:48:37;;;;;;;10.80;3.38;;;;;;;25.47;23.26;104188.19;6431456;23;20020;-73
2022/03/18 11:51:35;;;;;;;8.20;4.10;;;;;;;24.87;23.34;104186.75;6407087;23;20013;-79
2022/03/18 11:54:12;;;;;;;11.48;4.22;;;;;;;25.09;22.26;104179.22;6405633;23;20024;-72
2022/03/18 11:57:03;;;;;;;10.40;4.10;;;;;;;24.78;23.42;104178.94;6431817;23;20163;-72
2022/03/18 11:59:45;;;;;;;9.15;3.72;;;;;;;24.35;22.71;104180.56;6431343;23;20168;-76
2022/03/18 12:02:17;;;;;;;8.10;3.80;;;;;;;24.92;22.03;104184.88;6431549;23;20105;-73
2022/03/18 12:04:55;;;;;;;9.15;3.75;;;;;;;24.73;23.07;104173.69;6431886;23;20076;-72
2022/03/18 12:07:45;;;;;;;9.95;3.45;;;;;;;25.99;21.39;104176.34;6431230;23;20752;-72
2022/03/18 12:11:04;;;;;;;;;;;;;;;;;;;;;
2022/03/18 12:26:40;;;;;;;7.55;3.75;;;;;;;26.85;20.09;104167.84;6428661;23;20024;-72
2022/03/18 12:29:23;;;;;;;6.53;2.90;;;;;;;26.28;21.81;104163.16;6428743;23;20063;-72
2022/03/18 12:32:06;;;;;;;7.93;3.58;;;;;;;27.06;21.72;104171.72;6428414;23;20024;-74
2022/03/18 12:34:54;;;;;;;8.18;3.33;;;;;;;27.40;21.05;104169.84;6428498;23;20461;-71
2022/03/18 12:37:31;;;;;;;8.60;3.35;;;;;;;27.58;19.65;104161.25;6429461;23;20021;-73
2022/03/18 12:40:08;;;;;;;9.05;3.60;;;;;;;27.38;20.00;104155.63;6428451;23;20487;-73
2022/03/18 12:42:54;;;;;;;7.95;3.60;;;;;;;27.45;20.88;104160.75;6429430;23;20013;-76
2022/03/18 12:45:34;;;;;;;7.22;3.03;;;;;;;28.30;19.91;104149.06;6429425;23;20067;-73
2022/03/18 12:48:08;;;;;;;6.82;3.47;;;;;;;27.50;20.42;104157.03;6429927;23;20383;-74
2022/03/18 12:50:43;;;;;;;8.18;3.50;;;;;;;27.37;19.91;104154.78;6428963;23;20024;-73
2022/03/18 12:53:18;;;;;;;9.35;3.63;;;;;;;27.25;20.03;104147.94;6429652;23;20039;-73
2022/03/18 12:55:56;;;;;;;8.25;3.25;;;;;;;28.71;18.53;104142.22;6429046;23;20017;-72
2022/03/18 12:58:34;;;;;;;10.68;3.70;;;;;;;28.04;18.64;104141.91;6427764;23;20363;-72
2022/03/18 13:01:11;;;;;;;7.13;3.42;;;;;;;26.80;20.46;104145.69;6428831;23;20019;-71
2022/03/18 13:03:48;;;;;;;9.40;3.15;;;;;;;28.12;19.56;104132.66;6503625;22;20018;-73
2022/03/18 13:06:20;;;;;;;10.15;3.38;;;;;;;28.31;19.46;104138.28;6527778;22;20003;-72
2022/03/18 13:09:01;;;;;;;14.85;3.83;;;;;;;27.54;18.99;104140.81;6526906;22;20018;-73
2022/03/18 13:11:34;;;;;;;8.38;3.42;;;;;;;29.83;17.75;104128.00;6527517;22;20078;-73
2022/03/18 13:14:06;;;;;;;8.45;3.28;;;;;;;29.12;17.64;104125.47;6525714;22;20007;-73
2022/03/18 13:16:38;;;;;;;13.02;3.47;;;;;;;28.49;17.92;104122.44;6526163;22;20006;-73
2022/03/18 13:19:22;;;;;;;7.55;3.00;;;;;;;29.00;17.76;104124.13;6501350;22;20008;-75
2022/03/18 13:21:54;;;;;;;10.35;3.10;;;;;;;29.73;17.55;104122.13;6527942;22;20007;-73
2022/03/18 13:24:28;;;;;;;7.65;3.38;;;;;;;29.41;17.47;104120.78;6526847;22;20012;-72
2022/03/18 13:27:00;;;;;;;7.32;3.30;;;;;;;30.03;16.52;104118.22;6500033;22;20004;-75
2022/03/18 13:35:22;;;;;;;9.68;3.38;;;;;;;28.54;18.08;104099.84;6525238;22;20016;-73
2022/03/18 13:38:19;;;;;;;6.75;3.35;;;;;;;29.45;17.92;104104.47;6526553;22;20007;-71
2022/03/18 13:41:02;;;;;;;8.27;3.22;;;;;;;29.52;17.88;104098.84;6526274;22;20062;-73
2022/03/18 13:43:35;;;;;;;8.20;3.38;;;;;;;27.99;18.18;104105.41;6525346;22;20036;-72
2022/03/18 13:46:13;;;;;;;7.18;3.13;;;;;;;28.70;18.40;104097.50;6525608;22;20090;-72
2022/03/18 13:48:49;;;;;;;7.28;3.60;;;;;;;28.18;18.50;104100.28;6525994;22;20019;-71
2022/03/18 13:51:36;;;;;;;7.13;3.10;;;;;;;29.18;18.57;104089.44;6525320;22;20639;-72
2022/03/18 13:54:13;;;;;;;11.55;4.43;;;;;;;29.59;17.69;104093.16;6525412;22;20022;-73
2022/03/18 13:57:00;;;;;;;6.28;3.00;;;;;;;30.77;17.47;104096.97;6499006;22;20008;-73
2022/03/18 13:59:32;;;;;;;7.10;3.08;;;;;;;28.84;17.57;104101.50;6525451;22;20003;-72
2022/03/18 14:02:08;;;;;;;9.93;3.95;;;;;;;28.33;18.10;104098.84;6525754;22;20018;-72
2022/03/18 14:04:41;;;;;;;5.78;3.10;;;;;;;29.17;17.64;104091.22;6526034;22;20595;-72
2022/03/18 14:07:16;;;;;;;6.47;3.33;;;;;;;30.51;17.71;104099.06;6526323;22;20433;-72
2022/03/18 14:09:57;;;;;;;6.32;3.65;;;;;;;30.76;16.92;104099.72;6525554;22;20026;-72
2022/03/18 14:12:29;;;;;;;8.85;3.53;;;;;;;31.29;16.18;104093.59;6526019;22;20481;-72
2022/03/18 14:15:17;;;;;;;5.32;2.90;;;;;;;31.01;17.05;104104.84;6525628;22;20026;-74
2022/03/18 14:18:01;;;;;;;8.45;3.83;;;;;;;30.52;17.34;104099.91;6525851;22;20053;-73
2022/03/18 14:20:35;;;;;;;8.15;3.08;;;;;;;29.74;16.80;104097.00;6525617;22;20029;-74
2022/03/18 14:23:22;;;;;;;6.60;3.28;;;;;;;31.75;16.38;104091.31;6525767;22;20007;-73
2022/03/18 14:25:55;;;;;;;7.35;3.13;;;;;;;30.13;16.88;104088.16;6525322;22;20512;-73
2022/03/18 14:28:28;;;;;;;7.13;3.30;;;;;;;29.92;18.06;104089.97;6524950;22;20405;-73
2022/03/18 14:31:00;;;;;;;10.00;3.80;;;;;;;30.22;17.28;104083.31;6525227;22;20498;-72
2022/03/18 14:33:33;;;;;;;9.57;4.00;;;;;;;31.38;16.11;104079.69;6526984;22;20083;-74
2022/03/18 14:36:06;;;;;;;10.23;4.45;;;;;;;29.42;17.34;104075.03;6529067;22;20006;-74
2022/03/18 14:38:37;;;;;;;9.38;4.15;;;;;;;30.35;16.45;104071.06;6529289;22;20071;-73
2022/03/18 14:41:09;;;;;;;7.78;4.07;;;;;;;30.11;17.34;104065.84;6529100;22;20070;-74
2022/03/18 14:43:40;;;;;;;7.30;4.40;;;;;;;29.36;17.76;104064.53;6528181;22;20012;-72
2022/03/18 14:46:11;;;;;;;7.75;3.38;;;;;;;29.10;17.16;104062.88;6528201;22;20011;-74
2022/03/18 14:48:44;;;;;;;9.48;3.33;;;;;;;29.61;17.54;104064.38;6499617;22;20065;-76
2022/03/18 14:51:15;;;;;;;7.80;3.90;;;;;;;29.52;17.86;104059.38;6527883;22;20015;-73
2022/03/18 14:53:46;;;;;;;5.75;3.00;;;;;;;30.00;16.91;104060.06;6501240;22;20026;-72
2022/03/18 14:56:18;;;;;;;5.38;3.30;;;;;;;30.07;16.98;104063.34;6527695;22;20010;-73
2022/03/18 14:58:49;;;;;;;7.05;3.15;;;;;;;29.54;16.85;104056.63;6528305;22;20053;-74
2022/03/18 15:01:21;;;;;;;9.27;4.00;;;;;;;29.74;17.26;104053.09;6499218;22;20506;-74
2022/03/18 15:03:59;;;;;;;7.03;3.85;;;;;;;29.41;17.52;104053.59;6527863;22;20078;-73
2022/03/18 15:06:31;;;;;;;7.70;3.03;;;;;;;28.67;17.85;104053.81;6528190;22;19995;-73
2022/03/18 15:09:02;;;;;;;7.82;3.40;;;;;;;29.93;17.33;104040.63;6527532;22;20358;-73
2022/03/18 15:11:37;;;;;;;9.32;3.80;;;;;;;30.10;17.97;104056.00;6527388;22;20027;-74
2022/03/18 15:14:08;;;;;;;7.85;3.78;;;;;;;30.28;17.40;104045.38;6527866;22;20179;-75
2022/03/18 15:16:40;;;;;;;10.32;3.63;;;;;;;31.00;16.74;104041.16;6528747;22;20104;-73
2022/03/18 15:19:12;;;;;;;7.70;3.63;;;;;;;29.04;17.90;104039.81;6528216;22;20008;-72
2022/03/18 15:21:43;;;;;;;9.45;3.85;;;;;;;28.77;18.23;104044.50;6528663;22;20418;-74
2022/03/18 15:24:21;;;;;;;11.55;3.80;;;;;;;27.77;18.27;104040.91;6528015;22;20010;-74
2022/03/18 15:26:54;;;;;;;6.93;4.10;;;;;;;27.63;19.32;104053.91;6528270;22;20069;-78
2022/03/18 15:29:26;;;;;;;7.93;3.58;;;;;;;29.02;18.37;104056.94;6528988;22;20090;-74
2022/03/18 15:31:58;;;;;;;7.85;4.00;;;;;;;29.43;17.40;104046.31;6529122;22;20110;-73
2022/03/18 15:34:31;;;;;;;7.18;4.20;;;;;;;29.04;18.77;104047.84;6528409;22;20077;-73
2022/03/18 15:37:03;;;;;;;10.27;4.55;;;;;;;28.82;17.64;104044.28;6527690;22;20376;-74
2022/03/18 15:39:34;;;;;;;6.82;3.50;;;;;;;28.44;17.93;104046.59;6528107;22;20003;-75
2022/03/18 15:42:06;;;;;;;6.30;3.42;;;;;;;29.09;17.95;104045.88;6527582;22;20019;-74
2022/03/18 15:44:38;;;;;;;7.97;3.63;;;;;;;28.48;17.90;104045.53;6529067;22;20397;-74
2022/03/18 15:47:14;;;;;;;10.23;3.15;;;;;;;28.55;17.52;104045.25;6528735;22;20006;-73
2022/03/18 15:49:47;;;;;;;9.35;3.50;;;;;;;28.92;17.63;104053.75;6528836;22;20103;-72
2022/03/18 15:52:19;;;;;;;9.07;3.53;;;;;;;28.82;17.48;104044.28;6528689;22;20011;-75
2022/03/18 15:54:52;;;;;;;;;;;;;;;30.73;16.53;104050.44;6529493;22;20082;-73
2022/03/18 15:57:25;;;;;;;10.52;4.57;;;;;;;27.58;18.46;104047.81;6528881;22;19964;-77
2022/03/18 15:59:56;;;;;;;8.63;3.90;;;;;;;27.82;18.98;104043.41;6529038;22;20357;-75
2022/03/18 16:02:27;;;;;;;;;;;;;;;29.79;17.89;104037.69;6529638;22;20038;-73
2022/03/18 16:04:59;;;;;;;9.30;3.67;;;;;;;27.96;18.51;104046.50;6528346;22;20297;-75
2022/03/18 16:07:30;;;;;;;;;;;;;;;29.94;17.96;104047.75;6528794;22;20007;-74
2022/03/18 16:10:01;;;;;;;7.53;3.50;;;;;;;28.73;18.38;104041.03;6528799;22;19915;-72
2022/03/18 16:12:33;;;;;;;8.88;2.95;;;;;;;28.99;17.46;104043.63;6528216;22;20286;-74
2022/03/18 16:15:05;;;;;;;6.40;2.63;;;;;;;27.91;18.27;104036.88;6530292;22;20085;-74
2022/03/18 16:17:37;;;;;;;7.75;3.15;;;;;;;26.77;19.29;104038.72;6530158;22;20003;-73
2022/03/18 16:20:10;;;;;;;;;;;;;;;29.33;18.36;104040.47;6530426;22;20010;-82
2022/03/18 16:22:41;;;;;;;6.60;3.03;;;;;;;26.75;19.29;104041.44;6529959;22;19907;-72
2022/03/18 16:25:13;;;;;;;6.35;2.92;;;;;;;26.07;19.92;104045.16;6530850;22;20015;-74
2022/03/18 16:27:44;;;;;;;5.82;3.45;;;;;;;25.57;20.72;104039.31;6530856;22;20016;-74
2022/03/18 16:30:15;;;;;;;6.43;3.13;;;;;;;25.16;20.90;104050.00;6530500;22;20348;-75
2022/03/18 16:32:47;;;;;;;4.63;2.87;;;;;;;25.16;21.33;104044.69;6530843;22;20266;-74
2022/03/18 16:35:19;;;;;;;6.20;3.08;;;;;;;25.88;21.20;104049.22;6530047;22;20296;-73
2022/03/18 16:37:52;;;;;;;8.05;2.80;;;;;;;26.09;21.57;104039.78;6530482;22;20058;-73
2022/03/18 16:40:23;;;;;;;7.40;3.25;;;;;;;25.80;21.51;104052.09;6526269;22;20058;-74
2022/03/18 16:42:56;;;;;;;8.13;3.03;;;;;;;24.86;22.02;104048.91;6528844;22;20037;-73
2022/03/18 16:45:29;;;;;;;7.53;3.47;;;;;;;24.60;21.81;104044.13;6528893;22;20010;-73
2022/03/18 16:50:50;;;;;;;7.85;4.10;;;;;;;24.23;22.40;104055.47;6528755;22;20019;-74
2022/03/18 16:53:21;;;;;;;6.43;3.58;;;;;;;24.56;22.16;104056.66;6529649;22;20011;-74
2022/03/18 16:55:57;;;;;;;8.50;4.13;;;;;;;23.97;22.90;104048.84;6528974;22;20007;-74
2022/03/18 16:58:30;;;;;;;11.88;5.18;;;;;;;23.31;23.50;104053.41;6529576;22;20372;-73
2022/03/18 17:01:05;;;;;;;8.75;5.38;;;;;;;22.42;24.89;104058.09;6529878;22;20008;-73
2022/03/18 17:03:36;;;;;;;8.10;4.28;;;;;;;21.12;26.57;104058.16;6527942;22;20445;-73
2022/03/18 17:06:09;;;;;;;9.20;4.22;;;;;;;19.79;28.74;104065.53;6529330;22;20057;-75
2022/03/18 17:08:40;;;;;;;8.80;3.92;;;;;;;18.56;31.24;104072.09;6528094;22;20003;-74
2022/03/18 17:11:24;;;;;;;10.10;4.63;;;;;;;17.95;31.86;104061.06;6527939;22;20412;-74
2022/03/18 17:14:10;;;;;;;7.40;4.38;;;;;;;17.53;33.23;104072.97;6492991;23;20020;-74
2022/03/18 17:17:01;;;;;;;6.93;3.17;;;;;;;17.45;33.08;104075.50;6495972;23;20012;-73
2022/03/18 17:19:46;;;;;;;6.20;3.05;;;;;;;17.15;33.39;104074.31;6472489;23;20383;-72
2022/03/18 17:22:31;;;;;;;6.38;3.25;;;;;;;16.47;34.49;104072.44;6445831;23;20303;-73
2022/03/18 17:25:14;;;;;;;8.77;3.58;;;;;;;16.94;34.76;104080.19;6496714;23;20079;-73
2022/03/18 17:28:11;;;;;;;10.85;3.70;;;;;;;16.00;36.57;104079.63;6497059;23;20008;-81
2022/03/18 17:30:47;;;;;;;6.05;3.25;;;;;;;16.27;36.68;104083.56;6496864;23;20040;-72
2022/03/18 17:33:29;;;;;;;6.65;3.17;;;;;;;16.39;36.04;104077.63;6496749;23;20004;-72
2022/03/18 17:36:19;;;;;;;6.75;4.15;;;;;;;16.10;36.43;104096.47;6496917;23;20008;-75